Discovery Bay, Washington
Current Conditions -  °F | °C
As of 10:56 AM on Friday 28 Nov 2014 (Local Time) from KNUW Reporting Station
Light Rain Light Rain  
Wind Chill: 40°   Ceiling: 2900
Heat Index: 43°   Visibility: 10mi
Dew Point: 36°   Wind: 5mph
Humidity: 76%   Direction: 20°NNE
Pressure: 29.55"   Gusts: NA
Location:  48.026°N, 122.859°W
Report Text: KNUW 281856Z 02004KT 10SM -RA SCT015 BKN029 OVC050 06/02 A2955 RMK AO2 SLP011 P0009 T00610022 $
Loading
Personal Weather Stations






























Interactive Weather Map New forecast layout! Learn more

10-Day Weather Forecast

Advertisements
Track Severe Weather on mobile